createdAt,value
2022-12-15T00:00:19.474Z,48.70
2022-12-15T00:03:07.648Z,48.88
2022-12-15T00:05:56.400Z,48.96
2022-12-15T00:08:42.200Z,48.60
2022-12-15T00:11:28.332Z,48.62
2022-12-15T00:14:14.274Z,49.06
2022-12-15T00:17:00.884Z,48.88
2022-12-15T00:19:47.501Z,48.68
2022-12-15T00:22:35.488Z,49.10
2022-12-15T00:25:21.416Z,48.80
2022-12-15T00:28:07.262Z,48.72
2022-12-15T00:30:57.570Z,49.11
2022-12-15T00:33:48.749Z,48.93
2022-12-15T00:36:34.355Z,48.82
2022-12-15T00:39:05.568Z,48.99
2022-12-15T00:41:34.427Z,48.63
2022-12-15T00:44:03.005Z,48.57
2022-12-15T00:46:52.473Z,48.54
2022-12-15T00:49:38.577Z,48.76
2022-12-15T00:52:24.718Z,48.52
2022-12-15T00:55:12.629Z,48.25
2022-12-15T00:57:58.596Z,48.63
2022-12-15T01:00:44.439Z,48.96
2022-12-15T01:03:32.226Z,48.64
2022-12-15T01:06:18.918Z,48.65
2022-12-15T01:09:05.099Z,48.60
2022-12-15T01:11:52.429Z,48.86
2022-12-15T01:14:38.011Z,48.82
2022-12-15T01:17:23.574Z,48.95
2022-12-15T01:20:09.385Z,48.78
2022-12-15T01:22:38.374Z,48.51
2022-12-15T01:25:08.116Z,48.97
2022-12-15T01:27:37.748Z,48.93
2022-12-15T01:30:07.983Z,48.84
2022-12-15T01:32:38.520Z,48.78
2022-12-15T01:35:11.220Z,48.58
2022-12-15T01:37:42.881Z,48.76
2022-12-15T01:40:34.239Z,48.70
2022-12-15T01:43:04.534Z,48.52
2022-12-15T01:46:08.737Z,48.67
2022-12-15T01:48:42.788Z,48.59
2022-12-15T01:51:26.766Z,48.89
2022-12-15T01:54:03.703Z,49.15
2022-12-15T01:56:37.624Z,48.79
2022-12-15T01:59:12.222Z,48.50
2022-12-15T02:01:40.655Z,48.80
2022-12-15T02:04:10.287Z,48.62
2022-12-15T02:06:38.775Z,48.40
2022-12-15T02:09:08.371Z,48.79
2022-12-15T02:11:59.578Z,48.55
2022-12-15T02:14:47.041Z,48.83
2022-12-15T02:17:27.852Z,48.27
2022-12-15T02:20:25.443Z,48.93
2022-12-15T02:23:15.117Z,48.66
2022-12-15T02:26:01.617Z,48.55
2022-12-15T02:28:43.899Z,48.67
2022-12-15T02:31:35.229Z,48.75
2022-12-15T02:34:10.565Z,48.54
2022-12-15T02:36:44.659Z,48.57
2022-12-15T02:39:13.974Z,48.48
2022-12-15T02:41:44.210Z,48.84
2022-12-15T02:44:15.784Z,48.78
2022-12-15T02:47:03.452Z,49.08
2022-12-15T02:49:41.952Z,48.92
2022-12-15T02:52:24.454Z,48.75
2022-12-15T02:55:06.000Z,49.13
2022-12-15T02:57:43.670Z,48.95
2022-12-15T03:00:14.139Z,48.63
2022-12-15T03:02:48.084Z,48.85
2022-12-15T03:05:18.392Z,48.40
2022-12-15T03:07:49.840Z,48.93
2022-12-15T03:10:19.251Z,48.62
2022-12-15T03:12:47.803Z,48.79
2022-12-15T03:15:15.919Z,48.59
2022-12-15T03:17:45.545Z,49.11
2022-12-15T03:20:14.510Z,48.95
2022-12-15T03:22:43.163Z,48.68
2022-12-15T03:25:12.094Z,48.41
2022-12-15T03:27:40.457Z,48.72
2022-12-15T03:30:10.182Z,48.80
2022-12-15T03:32:38.545Z,48.67
2022-12-15T03:35:09.681Z,48.86
2022-12-15T03:37:37.843Z,48.69
2022-12-15T03:40:07.437Z,48.60
2022-12-15T03:42:51.531Z,48.63
2022-12-15T03:45:22.153Z,48.62
2022-12-15T03:47:54.723Z,48.72
2022-12-15T03:50:26.950Z,48.53
2022-12-15T03:52:57.687Z,48.81
2022-12-15T03:55:26.772Z,49.07
2022-12-15T03:57:54.855Z,48.71
2022-12-15T04:00:24.564Z,48.91
2022-12-15T04:02:53.005Z,48.74
2022-12-15T04:05:26.002Z,48.74
2022-12-15T04:07:57.161Z,48.68
2022-12-15T04:10:31.951Z,48.36
2022-12-15T04:13:03.975Z,48.87
2022-12-15T04:15:32.189Z,48.38
2022-12-15T04:18:00.384Z,48.60
2022-12-15T04:20:30.426Z,48.89
2022-12-15T04:22:58.640Z,48.54
2022-12-15T04:25:44.789Z,48.79
2022-12-15T04:28:30.993Z,48.85
2022-12-15T04:31:20.005Z,48.68
2022-12-15T04:34:08.492Z,48.91
2022-12-15T04:37:06.898Z,48.54
2022-12-15T04:39:53.839Z,48.58
2022-12-15T04:42:39.663Z,48.90
2022-12-15T04:45:28.219Z,48.32
2022-12-15T04:48:14.186Z,48.75
2022-12-15T04:50:59.657Z,48.23
2022-12-15T04:53:46.686Z,49.04
2022-12-15T04:56:34.049Z,48.79
2022-12-15T04:59:20.254Z,48.62
2022-12-15T05:02:07.407Z,48.44
2022-12-15T05:04:53.443Z,48.81
2022-12-15T05:07:39.660Z,48.64
2022-12-15T05:10:27.949Z,48.54
2022-12-15T05:13:13.355Z,48.49
2022-12-15T05:16:00.285Z,48.85
2022-12-15T05:18:45.660Z,48.85
2022-12-15T05:21:31.121Z,48.73
2022-12-15T05:24:16.482Z,49.08
2022-12-15T05:27:03.308Z,48.79
2022-12-15T05:29:48.726Z,48.91
2022-12-15T05:32:17.522Z,48.79
2022-12-15T05:34:45.557Z,48.53
2022-12-15T05:37:13.763Z,48.37
2022-12-15T05:39:42.543Z,48.79
2022-12-15T05:42:12.218Z,48.83
2022-12-15T05:44:40.939Z,48.81
2022-12-15T05:47:09.531Z,48.44
2022-12-15T05:49:37.659Z,48.12
2022-12-15T05:52:08.010Z,48.53
2022-12-15T05:54:36.190Z,48.31
2022-12-15T05:57:04.734Z,48.33
2022-12-15T05:59:34.932Z,48.68
2022-12-15T06:02:03.614Z,48.41
2022-12-15T06:04:33.649Z,48.45
2022-12-15T06:07:02.771Z,48.37
2022-12-15T06:09:30.818Z,48.57
2022-12-15T06:12:07.458Z,48.48
2022-12-15T06:14:39.813Z,48.21
2022-12-15T06:17:08.457Z,48.53
2022-12-15T06:19:39.917Z,48.97
2022-12-15T06:22:08.253Z,48.43
2022-12-15T06:24:41.717Z,48.46
2022-12-15T06:27:12.963Z,48.59
2022-12-15T06:30:27.795Z,48.27
2022-12-15T06:36:11.565Z,48.00
2022-12-15T06:38:43.664Z,48.33
2022-12-15T06:41:13.771Z,48.52
2022-12-15T06:43:45.794Z,48.50
2022-12-15T06:46:14.164Z,48.17
2022-12-15T06:48:45.109Z,48.74
2022-12-15T06:51:35.158Z,48.70
2022-12-15T06:54:06.701Z,48.09
2022-12-15T06:56:42.604Z,48.01
2022-12-15T07:04:43.642Z,48.40
2022-12-15T07:07:16.285Z,48.26
2022-12-15T07:09:44.841Z,48.33
2022-12-15T07:12:14.362Z,48.53
2022-12-15T07:14:51.583Z,48.40
2022-12-15T07:17:25.875Z,48.25
2022-12-15T07:19:55.399Z,48.49
2022-12-15T07:22:27.344Z,48.59
2022-12-15T07:24:56.233Z,48.44
2022-12-15T07:30:00.927Z,48.38
2022-12-15T07:32:31.028Z,48.53
2022-12-15T07:38:27.353Z,48.87
2022-12-15T08:47:13.230Z,48.67
2022-12-15T10:56:34.641Z,46.88
2022-12-15T11:22:04.526Z,46.31
2022-12-15T12:09:40.682Z,45.41
2022-12-15T12:12:22.272Z,45.01
2022-12-15T13:58:46.763Z,43.84
2022-12-15T15:57:22.323Z,37.99
2022-12-15T16:00:02.494Z,38.11
2022-12-15T16:05:33.037Z,38.49
2022-12-15T16:08:14.560Z,38.62
2022-12-15T16:47:30.147Z,41.40
2022-12-15T16:52:46.172Z,41.23
2022-12-15T16:55:26.820Z,41.69
2022-12-15T16:57:57.523Z,41.52
2022-12-15T17:00:28.788Z,41.65
2022-12-15T17:02:59.080Z,41.97
2022-12-15T17:05:29.216Z,42.00
2022-12-15T17:07:59.969Z,42.32
2022-12-15T17:10:30.298Z,42.01
2022-12-15T17:13:05.151Z,42.92
2022-12-15T17:15:33.368Z,42.44
2022-12-15T17:18:03.062Z,42.96
2022-12-15T17:20:31.672Z,43.02
2022-12-15T17:23:03.745Z,42.95
2022-12-15T17:26:18.132Z,43.27
2022-12-15T17:28:28.160Z,43.28
2022-12-15T17:30:56.602Z,42.92
2022-12-15T17:33:27.934Z,43.33
2022-12-15T17:35:57.710Z,43.14
2022-12-15T17:38:31.502Z,43.35
2022-12-15T17:40:59.980Z,43.40
2022-12-15T17:43:35.422Z,43.56
2022-12-15T17:46:04.580Z,43.59
2022-12-15T17:48:34.639Z,43.45
2022-12-15T17:51:03.743Z,44.03
2022-12-15T17:53:32.532Z,43.41
2022-12-15T17:56:04.438Z,44.35
2022-12-15T17:58:38.813Z,44.23
2022-12-15T18:01:07.748Z,43.91
2022-12-15T18:03:38.596Z,44.12
2022-12-15T18:06:08.656Z,44.56
2022-12-15T18:08:38.872Z,44.54
2022-12-15T18:11:32.411Z,44.32
2022-12-15T18:14:04.510Z,44.01
2022-12-15T18:16:48.389Z,44.12
2022-12-15T18:19:35.189Z,44.42
2022-12-15T18:22:09.315Z,44.15
2022-12-15T18:24:39.517Z,44.51
2022-12-15T18:33:51.968Z,44.49
2022-12-15T18:36:27.263Z,44.99
2022-12-15T18:38:56.204Z,44.31
2022-12-15T18:41:24.844Z,44.99
2022-12-15T18:43:57.525Z,44.86
2022-12-15T18:46:27.056Z,44.79
2022-12-15T18:48:56.871Z,45.14
2022-12-15T18:51:45.182Z,45.25
2022-12-15T18:54:18.385Z,45.64
2022-12-15T18:56:47.402Z,45.66
2022-12-15T18:59:18.048Z,45.15
2022-12-15T19:01:47.706Z,45.11
2022-12-15T19:04:17.647Z,45.09
2022-12-15T19:07:06.785Z,45.30
2022-12-15T19:09:38.654Z,45.71
2022-12-15T19:12:30.384Z,45.39
2022-12-15T19:14:59.122Z,45.36
2022-12-15T19:17:44.980Z,45.57
2022-12-15T19:20:35.292Z,45.44
2022-12-15T19:23:07.095Z,45.31
2022-12-15T19:38:29.425Z,45.87
2022-12-15T20:12:33.582Z,46.50
2022-12-15T20:15:04.443Z,46.38
2022-12-15T20:20:50.179Z,46.19
2022-12-15T20:26:36.933Z,46.32
2022-12-15T20:29:15.776Z,46.50
2022-12-15T20:34:59.498Z,46.65
2022-12-15T20:37:34.160Z,46.70
2022-12-15T20:40:12.123Z,46.91
2022-12-15T20:42:41.741Z,47.10
2022-12-15T20:45:16.763Z,47.04
2022-12-15T20:50:52.264Z,46.94
2022-12-15T20:53:27.204Z,46.90
2022-12-15T20:56:38.931Z,47.09
2022-12-15T20:59:09.603Z,47.45
2022-12-15T21:01:41.255Z,47.01
2022-12-15T21:04:40.650Z,47.51
2022-12-15T21:07:27.266Z,47.54
2022-12-15T21:09:55.839Z,47.65
2022-12-15T21:12:28.304Z,47.11
2022-12-15T21:14:57.031Z,47.19
2022-12-15T21:17:28.428Z,47.57
2022-12-15T21:19:57.455Z,47.15
2022-12-15T21:22:28.507Z,47.50
2022-12-15T21:24:59.502Z,47.62
2022-12-15T21:27:30.269Z,47.43
2022-12-15T21:30:02.150Z,47.82
2022-12-15T21:32:39.428Z,47.59
2022-12-15T21:35:09.222Z,47.75
2022-12-15T21:37:38.459Z,47.40
2022-12-15T21:40:08.150Z,47.73
2022-12-15T21:42:37.918Z,47.62
2022-12-15T21:45:14.505Z,47.56
2022-12-15T21:48:02.116Z,47.44
2022-12-15T21:50:30.837Z,48.16
2022-12-15T21:52:59.351Z,47.65
2022-12-15T21:55:30.380Z,48.02
2022-12-15T21:58:00.080Z,48.04
2022-12-15T22:00:45.692Z,47.98
2022-12-15T22:03:42.196Z,47.64
2022-12-15T22:06:19.650Z,47.62
2022-12-15T22:08:50.851Z,48.14
2022-12-15T22:11:45.007Z,48.36
2022-12-15T22:44:02.794Z,48.19
2022-12-15T22:46:39.218Z,48.44
2022-12-15T23:13:27.160Z,48.29
2022-12-15T23:16:13.624Z,48.28
2022-12-15T23:18:42.393Z,48.52
2022-12-15T23:21:11.272Z,48.34
2022-12-15T23:23:43.529Z,48.36
2022-12-15T23:26:13.163Z,48.25
2022-12-15T23:28:44.452Z,48.27
2022-12-15T23:31:14.947Z,48.88
2022-12-15T23:33:43.802Z,48.71
2022-12-15T23:36:13.573Z,48.43
2022-12-15T23:44:57.710Z,48.49
2022-12-15T23:53:17.091Z,48.50
2022-12-15T23:55:48.163Z,48.37
2022-12-15T23:58:16.375Z,48.63
